Accueil
METAR-TAF:

METAR-TAF

Aéroports :

Siirt, Turquie

latitude: 37-58-41N, longitude: 41-50-21E, altitude: 610 m

Observation

Le bulletin a été fait il y a 7 heures et 53 minutes, à 13:50 UTC
Vent 2 kt de direction variable
Température 25°C
Humidité 19%
Pression 1018 hPa
Visibilité 10 km ou plus
Quelques nuages à une hauteur de 4000 ft
Nuages épars à une hauteur de 10000 ft

METAR: LTCL 301350Z VRB02KT 9999 FEW040 SCT100 25/M00 Q1018

Heure: 00:43 (21:43 UTC)

Prévision

Le bulletin a été fait il y a 8 heures et 3 minutes, à 13:40 UTC
Prévision valable du 30 à 15 UTC au 30 à 24 UTC
Vent 7 kt de nord-est
Visibilité 10 km ou plus
pas de nuages en-dessous de 1500 mètres et pas de cumulonimbus.

TAF: LTCL 301340Z 3015/3024 05007KT CAVOK

Observations et prévisions météorologiques de plus de 4000 aéroports (messages METAR et TAF).

Les stations disponibles sont représentées par des disques jaunes et rouges sur la carte.

Passer la souris dessus pour voir le nom de la station.

Cliquer dessus pour voir les observations et prévisions météorologiques.

Pour changer de carte: cliquez sur les boutons verts avec une croix noire pour zoomer, sur le bouton vert avec un tiret pour effectuer un zoom arrière, ou sur les flèches vertes pour les cartes adjacentes.


METAR-TAF: